sensor_id;sensor_type;location;lat;lon;timestamp;pressure;altitude;pressure_sealevel;temperature;humidity
71126;BME280;58785;55.566;38.058;2023-04-24T00:00:03;100325.94;;;7.82;65.63
71126;BME280;58785;55.566;38.058;2023-04-24T00:02:35;100332.31;;;7.79;65.47
71126;BME280;58785;55.566;38.058;2023-04-24T00:05:04;100319.69;;;7.72;65.46
71126;BME280;58785;55.566;38.058;2023-04-24T00:07:31;100337.03;;;7.76;65.48
71126;BME280;58785;55.566;38.058;2023-04-24T00:09:57;100334.50;;;7.74;65.83
71126;BME280;58785;55.566;38.058;2023-04-24T00:12:23;100325.22;;;7.69;65.72
71126;BME280;58785;55.566;38.058;2023-04-24T00:14:49;100324.63;;;7.65;65.80
71126;BME280;58785;55.566;38.058;2023-04-24T00:17:15;100324.63;;;7.65;65.67
71126;BME280;58785;55.566;38.058;2023-04-24T00:19:41;100319.34;;;7.54;65.55
71126;BME280;58785;55.566;38.058;2023-04-24T00:22:07;100319.94;;;7.58;65.88
71126;BME280;58785;55.566;38.058;2023-04-24T00:24:33;100326.22;;;7.57;66.26
71126;BME280;58785;55.566;38.058;2023-04-24T00:26:59;100330.09;;;7.53;65.57
71126;BME280;58785;55.566;38.058;2023-04-24T00:29:26;100315.50;;;7.47;66.07
71126;BME280;58785;55.566;38.058;2023-04-24T00:31:52;100325.13;;;7.48;66.21
71126;BME280;58785;55.566;38.058;2023-04-24T00:34:17;100325.00;;;7.49;66.61
71126;BME280;58785;55.566;38.058;2023-04-24T00:36:43;100329.47;;;7.49;65.79
71126;BME280;58785;55.566;38.058;2023-04-24T00:39:09;100323.31;;;7.48;66.04
71126;BME280;58785;55.566;38.058;2023-04-24T00:41:35;100312.00;;;7.46;66.29
71126;BME280;58785;55.566;38.058;2023-04-24T00:44:01;100335.50;;;7.51;66.31
71126;BME280;58785;55.566;38.058;2023-04-24T00:46:27;100313.69;;;7.47;65.88
71126;BME280;58785;55.566;38.058;2023-04-24T00:48:52;100330.19;;;7.51;66.08
71126;BME280;58785;55.566;38.058;2023-04-24T00:51:18;100315.50;;;7.47;66.63
71126;BME280;58785;55.566;38.058;2023-04-24T00:53:44;100319.25;;;7.44;66.92
71126;BME280;58785;55.566;38.058;2023-04-24T00:56:09;100301.16;;;7.38;66.24
71126;BME280;58785;55.566;38.058;2023-04-24T00:58:36;100330.44;;;7.48;66.84
71126;BME280;58785;55.566;38.058;2023-04-24T01:01:02;100327.06;;;7.46;66.78
71126;BME280;58785;55.566;38.058;2023-04-24T01:03:33;100329.13;;;7.42;67.02
71126;BME280;58785;55.566;38.058;2023-04-24T01:05:59;100326.13;;;7.36;66.84
71126;BME280;58785;55.566;38.058;2023-04-24T01:08:26;100331.41;;;7.36;66.38
71126;BME280;58785;55.566;38.058;2023-04-24T01:10:53;100325.53;;;7.32;66.57
71126;BME280;58785;55.566;38.058;2023-04-24T01:13:19;100320.81;;;7.25;67.25
71126;BME280;58785;55.566;38.058;2023-04-24T01:15:47;100330.22;;;7.29;66.39
71126;BME280;58785;55.566;38.058;2023-04-24T01:18:13;100325.41;;;7.23;66.70
71126;BME280;58785;55.566;38.058;2023-04-24T01:20:40;100327.44;;;7.19;66.92
71126;BME280;58785;55.566;38.058;2023-04-24T01:23:07;100316.22;;;7.15;66.84
71126;BME280;58785;55.566;38.058;2023-04-24T01:25:33;100328.78;;;7.13;66.85
71126;BME280;58785;55.566;38.058;2023-04-24T01:27:59;100322.84;;;7.10;67.05
71126;BME280;58785;55.566;38.058;2023-04-24T01:30:26;100312.88;;;7.02;67.51
71126;BME280;58785;55.566;38.058;2023-04-24T01:32:52;100314.69;;;7.02;67.31
71126;BME280;58785;55.566;38.058;2023-04-24T01:35:18;100302.47;;;6.99;67.68
71126;BME280;58785;55.566;38.058;2023-04-24T01:37:45;100308.41;;;7.03;67.29
71126;BME280;58785;55.566;38.058;2023-04-24T01:40:11;100312.88;;;7.02;66.84
71126;BME280;58785;55.566;38.058;2023-04-24T01:42:37;100314.19;;;6.97;67.59
71126;BME280;58785;55.566;38.058;2023-04-24T01:45:04;100315.84;;;6.98;67.61
71126;BME280;58785;55.566;38.058;2023-04-24T01:47:31;100315.00;;;6.97;67.61
71126;BME280;58785;55.566;38.058;2023-04-24T01:49:57;100310.81;;;6.95;67.82
71126;BME280;58785;55.566;38.058;2023-04-24T01:52:23;100302.97;;;6.93;67.86
71126;BME280;58785;55.566;38.058;2023-04-24T01:54:50;100310.81;;;6.95;67.69
71126;BME280;58785;55.566;38.058;2023-04-24T01:57:16;100313.59;;;6.93;67.96
71126;BME280;58785;55.566;38.058;2023-04-24T01:59:42;100314.53;;;6.92;67.71
71126;BME280;58785;55.566;38.058;2023-04-24T02:02:08;100311.91;;;6.92;68.09
71126;BME280;58785;55.566;38.058;2023-04-24T02:04:34;100310.31;;;6.89;68.06
71126;BME280;58785;55.566;38.058;2023-04-24T02:06:59;100314.75;;;6.89;67.47
71126;BME280;58785;55.566;38.058;2023-04-24T02:09:25;100319.00;;;6.91;67.99
71126;BME280;58785;55.566;38.058;2023-04-24T02:11:50;100316.94;;;6.95;67.43
71126;BME280;58785;55.566;38.058;2023-04-24T02:14:16;100318.50;;;6.98;68.13
71126;BME280;58785;55.566;38.058;2023-04-24T02:16:42;100313.94;;;7.00;67.66
71126;BME280;58785;55.566;38.058;2023-04-24T02:19:09;100321.75;;;7.01;67.69
71126;BME280;58785;55.566;38.058;2023-04-24T02:21:35;100312.75;;;7.04;67.76
71126;BME280;58785;55.566;38.058;2023-04-24T02:24:00;100318.38;;;7.10;67.62
71126;BME280;58785;55.566;38.058;2023-04-24T02:26:26;100323.09;;;7.18;67.62
71126;BME280;58785;55.566;38.058;2023-04-24T02:28:52;100320.31;;;7.31;67.18
71126;BME280;58785;55.566;38.058;2023-04-24T02:31:18;100316.22;;;7.38;67.43
71126;BME280;58785;55.566;38.058;2023-04-24T02:33:43;100320.31;;;7.53;67.37
71126;BME280;58785;55.566;38.058;2023-04-24T02:36:09;100317.50;;;7.66;67.39
71126;BME280;58785;55.566;38.058;2023-04-24T02:38:35;100318.06;;;7.81;67.42
71126;BME280;58785;55.566;38.058;2023-04-24T02:41:00;100328.50;;;8.04;66.82
71126;BME280;58785;55.566;38.058;2023-04-24T02:43:27;100320.72;;;8.24;66.47
71126;BME280;58785;55.566;38.058;2023-04-24T02:45:53;100322.81;;;8.41;66.93
71126;BME280;58785;55.566;38.058;2023-04-24T02:48:19;100331.19;;;8.57;66.27
71126;BME280;58785;55.566;38.058;2023-04-24T02:50:46;100330.75;;;8.73;66.02
71126;BME280;58785;55.566;38.058;2023-04-24T02:53:12;100337.75;;;8.95;65.96
71126;BME280;58785;55.566;38.058;2023-04-24T02:55:37;100343.88;;;9.16;65.58
71126;BME280;58785;55.566;38.058;2023-04-24T02:58:03;100340.13;;;9.29;65.28
71126;BME280;58785;55.566;38.058;2023-04-24T03:00:29;100346.38;;;9.48;65.75
71126;BME280;58785;55.566;38.058;2023-04-24T03:02:55;100350.63;;;9.61;65.17
71126;BME280;58785;55.566;38.058;2023-04-24T03:05:21;100354.19;;;9.80;65.17
71126;BME280;58785;55.566;38.058;2023-04-24T03:07:47;100352.13;;;9.94;64.73
71126;BME280;58785;55.566;38.058;2023-04-24T03:10:12;100353.00;;;10.14;64.40
71126;BME280;58785;55.566;38.058;2023-04-24T03:12:38;100359.22;;;10.33;63.64
71126;BME280;58785;55.566;38.058;2023-04-24T03:15:04;100358.50;;;10.51;63.84
71126;BME280;58785;55.566;38.058;2023-04-24T03:17:31;100347.69;;;10.62;62.99
71126;BME280;58785;55.566;38.058;2023-04-24T03:19:57;100359.47;;;10.79;62.77
71126;BME280;58785;55.566;38.058;2023-04-24T03:22:23;100365.31;;;10.92;62.66
71126;BME280;58785;55.566;38.058;2023-04-24T03:24:48;100348.44;;;11.01;62.30
71126;BME280;58785;55.566;38.058;2023-04-24T03:27:14;100357.69;;;11.16;61.79
71126;BME280;58785;55.566;38.058;2023-04-24T03:29:39;100355.13;;;11.34;61.42
71126;BME280;58785;55.566;38.058;2023-04-24T03:32:05;100352.78;;;11.49;61.37
71126;BME280;58785;55.566;38.058;2023-04-24T03:34:31;100350.91;;;11.59;61.06
71126;BME280;58785;55.566;38.058;2023-04-24T03:36:56;100351.56;;;11.71;60.96
71126;BME280;58785;55.566;38.058;2023-04-24T03:39:22;100355.59;;;11.85;60.51
71126;BME280;58785;55.566;38.058;2023-04-24T03:41:48;100364.63;;;12.01;60.16
71126;BME280;58785;55.566;38.058;2023-04-24T03:44:13;100367.63;;;12.16;59.83
71126;BME280;58785;55.566;38.058;2023-04-24T03:46:39;100366.09;;;12.31;59.73
71126;BME280;58785;55.566;38.058;2023-04-24T03:49:05;100364.75;;;12.45;58.80
71126;BME280;58785;55.566;38.058;2023-04-24T03:51:31;100370.53;;;12.58;58.75
71126;BME280;58785;55.566;38.058;2023-04-24T03:53:57;100371.28;;;12.69;58.44
71126;BME280;58785;55.566;38.058;2023-04-24T03:56:23;100372.03;;;12.79;58.13
71126;BME280;58785;55.566;38.058;2023-04-24T03:58:49;100379.53;;;12.93;57.92
71126;BME280;58785;55.566;38.058;2023-04-24T04:01:15;100368.84;;;13.01;57.47
71126;BME280;58785;55.566;38.058;2023-04-24T04:03:41;100370.13;;;13.15;57.36
71126;BME280;58785;55.566;38.058;2023-04-24T04:06:07;100372.75;;;13.33;57.34
71126;BME280;58785;55.566;38.058;2023-04-24T04:08:33;100372.88;;;13.49;56.96
71126;BME280;58785;55.566;38.058;2023-04-24T04:10:58;100377.16;;;13.68;56.58
71126;BME280;58785;55.566;38.058;2023-04-24T04:13:24;100375.38;;;13.85;56.13
71126;BME280;58785;55.566;38.058;2023-04-24T04:15:49;100382.31;;;14.03;55.77
71126;BME280;58785;55.566;38.058;2023-04-24T04:18:15;100383.50;;;14.17;55.08
71126;BME280;58785;55.566;38.058;2023-04-24T04:20:41;100371.97;;;14.25;54.92
71126;BME280;58785;55.566;38.058;2023-04-24T04:23:07;100388.06;;;14.41;54.89
71126;BME280;58785;55.566;38.058;2023-04-24T04:25:32;100386.94;;;14.52;54.65
71126;BME280;58785;55.566;38.058;2023-04-24T04:27:58;100391.66;;;14.66;54.00
71126;BME280;58785;55.566;38.058;2023-04-24T04:30:25;100381.44;;;14.78;53.90
71126;BME280;58785;55.566;38.058;2023-04-24T04:32:51;100389.81;;;14.91;53.60
71126;BME280;58785;55.566;38.058;2023-04-24T04:35:17;100384.09;;;15.02;53.63
71126;BME280;58785;55.566;38.058;2023-04-24T04:37:43;100381.22;;;15.12;53.27
71126;BME280;58785;55.566;38.058;2023-04-24T04:40:08;100374.34;;;15.26;52.76
71126;BME280;58785;55.566;38.058;2023-04-24T04:42:37;100384.66;;;15.53;52.53
71126;BME280;58785;55.566;38.058;2023-04-24T04:45:07;100385.31;;;15.71;52.18
71126;BME280;58785;55.566;38.058;2023-04-24T04:47:37;100381.06;;;15.85;52.08
71126;BME280;58785;55.566;38.058;2023-04-24T04:50:03;100382.81;;;16.01;51.71
71126;BME280;58785;55.566;38.058;2023-04-24T04:52:31;100385.25;;;16.19;50.98
71126;BME280;58785;55.566;38.058;2023-04-24T04:54:58;100379.66;;;16.28;50.77
71126;BME280;58785;55.566;38.058;2023-04-24T04:57:24;100390.78;;;16.48;50.16
71126;BME280;58785;55.566;38.058;2023-04-24T04:59:50;100399.78;;;16.63;50.01
71126;BME280;58785;55.566;38.058;2023-04-24T05:02:15;100385.75;;;16.76;49.75
71126;BME280;58785;55.566;38.058;2023-04-24T05:04:41;100392.09;;;16.98;49.46
71126;BME280;58785;55.566;38.058;2023-04-24T05:07:07;100394.16;;;17.11;49.22
71126;BME280;58785;55.566;38.058;2023-04-24T05:09:32;100377.75;;;17.20;48.90
71126;BME280;58785;55.566;38.058;2023-04-24T05:11:58;100384.25;;;17.41;48.87
71126;BME280;58785;55.566;38.058;2023-04-24T05:14:23;100383.53;;;17.62;48.29
71126;BME280;58785;55.566;38.058;2023-04-24T05:16:49;100380.94;;;17.83;48.01
71126;BME280;58785;55.566;38.058;2023-04-24T05:19:15;100390.78;;;18.05;47.77
71126;BME280;58785;55.566;38.058;2023-04-24T05:21:41;100382.53;;;18.28;47.24
71126;BME280;58785;55.566;38.058;2023-04-24T05:24:06;100387.00;;;18.57;46.68
71126;BME280;58785;55.566;38.058;2023-04-24T05:26:32;100391.72;;;18.70;46.59
71126;BME280;58785;55.566;38.058;2023-04-24T05:28:58;100390.41;;;18.87;46.34
71126;BME280;58785;55.566;38.058;2023-04-24T05:31:24;100383.94;;;19.10;45.74
71126;BME280;58785;55.566;38.058;2023-04-24T05:33:50;100388.25;;;19.32;45.17
71126;BME280;58785;55.566;38.058;2023-04-24T05:36:16;100386.03;;;19.42;44.88
71126;BME280;58785;55.566;38.058;2023-04-24T05:38:42;100383.91;;;19.59;44.35
71126;BME280;58785;55.566;38.058;2023-04-24T05:41:07;100369.84;;;19.77;43.51
71126;BME280;58785;55.566;38.058;2023-04-24T05:43:33;100371.19;;;20.01;42.55
71126;BME280;58785;55.566;38.058;2023-04-24T05:45:58;100376.91;;;20.26;41.50
71126;BME280;58785;55.566;38.058;2023-04-24T05:48:24;100372.13;;;20.41;40.60
71126;BME280;58785;55.566;38.058;2023-04-24T05:50:50;100374.47;;;20.51;40.41
71126;BME280;58785;55.566;38.058;2023-04-24T05:53:18;100386.59;;;20.68;40.07
71126;BME280;58785;55.566;38.058;2023-04-24T05:55:44;100374.53;;;20.77;39.80
71126;BME280;58785;55.566;38.058;2023-04-24T05:58:11;100375.13;;;20.92;39.85
71126;BME280;58785;55.566;38.058;2023-04-24T06:00:37;100372.84;;;21.03;39.79
71126;BME280;58785;55.566;38.058;2023-04-24T06:03:05;100366.59;;;21.09;39.26
71126;BME280;58785;55.566;38.058;2023-04-24T06:05:31;100378.91;;;21.24;39.44
71126;BME280;58785;55.566;38.058;2023-04-24T06:07:57;100379.72;;;21.38;38.85
71126;BME280;58785;55.566;38.058;2023-04-24T06:10:23;100380.13;;;21.48;37.95
71126;BME280;58785;55.566;38.058;2023-04-24T06:12:48;100376.09;;;21.64;37.54
71126;BME280;58785;55.566;38.058;2023-04-24T06:15:14;100368.38;;;21.68;37.48
71126;BME280;58785;55.566;38.058;2023-04-24T06:17:40;100380.91;;;21.75;37.37
71126;BME280;58785;55.566;38.058;2023-04-24T06:20:06;100379.03;;;21.76;37.28
71126;BME280;58785;55.566;38.058;2023-04-24T06:22:33;100377.75;;;21.85;36.39
71126;BME280;58785;55.566;38.058;2023-04-24T06:24:59;100380.63;;;21.90;36.50
71126;BME280;58785;55.566;38.058;2023-04-24T06:27:25;100387.66;;;22.04;36.61
71126;BME280;58785;55.566;38.058;2023-04-24T06:29:51;100382.00;;;22.19;36.57
71126;BME280;58785;55.566;38.058;2023-04-24T06:32:24;100375.63;;;22.38;36.14
71126;BME280;58785;55.566;38.058;2023-04-24T06:34:53;100383.03;;;22.56;36.16
71126;BME280;58785;55.566;38.058;2023-04-24T06:37:19;100376.94;;;22.61;35.63
71126;BME280;58785;55.566;38.058;2023-04-24T06:39:46;100380.94;;;22.58;35.66
71126;BME280;58785;55.566;38.058;2023-04-24T06:42:12;100378.25;;;22.52;35.78
71126;BME280;58785;55.566;38.058;2023-04-24T06:44:37;100372.88;;;22.45;35.74
71126;BME280;58785;55.566;38.058;2023-04-24T06:47:10;100373.47;;;22.47;35.23
71126;BME280;58785;55.566;38.058;2023-04-24T06:49:36;100376.31;;;22.59;35.40
71126;BME280;58785;55.566;38.058;2023-04-24T06:52:02;100380.44;;;22.68;35.32
71126;BME280;58785;55.566;38.058;2023-04-24T06:54:29;100374.41;;;22.66;35.00
71126;BME280;58785;55.566;38.058;2023-04-24T06:56:55;100385.44;;;22.71;35.12
71126;BME280;58785;55.566;38.058;2023-04-24T06:59:23;100394.59;;;22.77;34.92
71126;BME280;58785;55.566;38.058;2023-04-24T07:01:49;100382.06;;;22.76;34.89
71126;BME280;58785;55.566;38.058;2023-04-24T07:04:16;100385.41;;;22.78;34.74
71126;BME280;58785;55.566;38.058;2023-04-24T07:06:43;100387.28;;;22.77;34.82
71126;BME280;58785;55.566;38.058;2023-04-24T07:09:08;100384.38;;;22.72;34.61
71126;BME280;58785;55.566;38.058;2023-04-24T07:11:35;100384.78;;;22.76;35.11
71126;BME280;58785;55.566;38.058;2023-04-24T07:14:03;100392.69;;;22.84;34.62
71126;BME280;58785;55.566;38.058;2023-04-24T07:16:29;100377.00;;;22.79;34.73
71126;BME280;58785;55.566;38.058;2023-04-24T07:18:55;100388.28;;;22.83;34.76
71126;BME280;58785;55.566;38.058;2023-04-24T07:21:21;100383.28;;;22.80;34.41
71126;BME280;58785;55.566;38.058;2023-04-24T07:23:46;100390.00;;;22.77;34.13
71126;BME280;58785;55.566;38.058;2023-04-24T07:26:12;100388.72;;;22.80;34.29
71126;BME280;58785;55.566;38.058;2023-04-24T07:28:40;100393.94;;;22.88;33.71
71126;BME280;58785;55.566;38.058;2023-04-24T07:31:06;100380.88;;;22.97;33.42
71126;BME280;58785;55.566;38.058;2023-04-24T07:33:32;100397.97;;;23.04;33.99
71126;BME280;58785;55.566;38.058;2023-04-24T07:35:58;100381.44;;;23.05;33.40
71126;BME280;58785;55.566;38.058;2023-04-24T07:38:24;100397.41;;;23.20;33.21
71126;BME280;58785;55.566;38.058;2023-04-24T07:40:51;100389.56;;;23.30;33.16
71126;BME280;58785;55.566;38.058;2023-04-24T07:43:19;100385.81;;;23.31;33.09
71126;BME280;58785;55.566;38.058;2023-04-24T07:45:45;100362.09;;;23.13;32.90
71126;BME280;58785;55.566;38.058;2023-04-24T07:48:11;100379.94;;;23.09;32.71
71126;BME280;58785;55.566;38.058;2023-04-24T07:50:39;100375.78;;;23.07;31.99
71126;BME280;58785;55.566;38.058;2023-04-24T07:53:05;100373.66;;;23.09;32.12
71126;BME280;58785;55.566;38.058;2023-04-24T07:55:31;100372.38;;;23.11;32.10
71126;BME280;58785;55.566;38.058;2023-04-24T07:57:56;100384.38;;;23.29;32.81
71126;BME280;58785;55.566;38.058;2023-04-24T08:00:22;100372.97;;;23.38;32.06
71126;BME280;58785;55.566;38.058;2023-04-24T08:02:48;100381.78;;;23.59;32.23
71126;BME280;58785;55.566;38.058;2023-04-24T08:05:13;100381.78;;;23.59;31.96
71126;BME280;58785;55.566;38.058;2023-04-24T08:07:39;100374.47;;;23.52;32.22
71126;BME280;58785;55.566;38.058;2023-04-24T08:10:09;100369.63;;;23.55;32.29
71126;BME280;58785;55.566;38.058;2023-04-24T08:12:35;100377.06;;;23.47;31.63
71126;BME280;58785;55.566;38.058;2023-04-24T08:15:01;100363.97;;;23.38;31.53
71126;BME280;58785;55.566;38.058;2023-04-24T08:17:29;100360.84;;;23.34;31.56
71126;BME280;58785;55.566;38.058;2023-04-24T08:19:54;100355.63;;;23.33;31.89
71126;BME280;58785;55.566;38.058;2023-04-24T08:22:27;100351.75;;;23.22;31.76
71126;BME280;58785;55.566;38.058;2023-04-24T08:24:54;100347.84;;;23.18;32.08
71126;BME280;58785;55.566;38.058;2023-04-24T08:27:19;100352.72;;;23.09;32.05
71126;BME280;58785;55.566;38.058;2023-04-24T08:29:45;100355.19;;;23.17;32.33
71126;BME280;58785;55.566;38.058;2023-04-24T08:32:11;100366.06;;;23.17;32.09
71126;BME280;58785;55.566;38.058;2023-04-24T08:34:36;100354.84;;;23.07;31.68
71126;BME280;58785;55.566;38.058;2023-04-24T08:37:02;100364.06;;;23.06;31.85
71126;BME280;58785;55.566;38.058;2023-04-24T08:39:28;100342.84;;;22.90;30.97
71126;BME280;58785;55.566;38.058;2023-04-24T08:41:55;100339.91;;;22.91;30.75
71126;BME280;58785;55.566;38.058;2023-04-24T08:44:21;100349.50;;;22.94;31.15
71126;BME280;58785;55.566;38.058;2023-04-24T08:46:48;100348.53;;;22.88;31.10
71126;BME280;58785;55.566;38.058;2023-04-24T08:49:15;100335.56;;;22.84;31.70
71126;BME280;58785;55.566;38.058;2023-04-24T08:51:44;100343.56;;;22.79;31.63
71126;BME280;58785;55.566;38.058;2023-04-24T08:54:12;100335.84;;;22.76;32.03
71126;BME280;58785;55.566;38.058;2023-04-24T08:56:40;100334.31;;;22.86;31.68
71126;BME280;58785;55.566;38.058;2023-04-24T08:59:08;100312.56;;;22.86;31.42
71126;BME280;58785;55.566;38.058;2023-04-24T09:01:34;100319.31;;;23.02;31.39
71126;BME280;58785;55.566;38.058;2023-04-24T09:04:03;100317.59;;;23.08;31.70
71126;BME280;58785;55.566;38.058;2023-04-24T09:06:30;100323.41;;;23.11;31.72
71126;BME280;58785;55.566;38.058;2023-04-24T09:09:00;100320.03;;;23.16;31.58
71126;BME280;58785;55.566;38.058;2023-04-24T09:11:26;100321.84;;;23.22;31.67
71126;BME280;58785;55.566;38.058;2023-04-24T09:13:53;100321.22;;;23.20;31.36
71126;BME280;58785;55.566;38.058;2023-04-24T09:16:19;100321.28;;;23.13;31.37
71126;BME280;58785;55.566;38.058;2023-04-24T09:18:46;100324.00;;;22.95;31.72
71126;BME280;58785;55.566;38.058;2023-04-24T09:21:11;100319.25;;;22.84;31.50
71126;BME280;58785;55.566;38.058;2023-04-24T09:23:38;100323.69;;;22.78;32.00
71126;BME280;58785;55.566;38.058;2023-04-24T09:26:04;100311.75;;;22.79;31.69
71126;BME280;58785;55.566;38.058;2023-04-24T09:28:36;100309.88;;;22.80;31.38
71126;BME280;58785;55.566;38.058;2023-04-24T09:31:04;100307.16;;;22.80;31.25
71126;BME280;58785;55.566;38.058;2023-04-24T09:33:30;100306.78;;;22.76;31.25
71126;BME280;58785;55.566;38.058;2023-04-24T09:35:55;100309.69;;;22.75;30.98
71126;BME280;58785;55.566;38.058;2023-04-24T09:38:36;100294.94;;;22.64;30.88
71126;BME280;58785;55.566;38.058;2023-04-24T09:41:04;100298.47;;;22.64;31.45
71126;BME280;58785;55.566;38.058;2023-04-24T09:43:30;100292.28;;;22.57;31.47
71126;BME280;58785;55.566;38.058;2023-04-24T09:45:57;100304.38;;;22.61;31.64
71126;BME280;58785;55.566;38.058;2023-04-24T09:48:35;100294.16;;;22.57;31.70
71126;BME280;58785;55.566;38.058;2023-04-24T09:51:03;100295.16;;;22.62;31.52
71126;BME280;58785;55.566;38.058;2023-04-24T09:53:30;100297.88;;;22.62;31.56
71126;BME280;58785;55.566;38.058;2023-04-24T09:56:01;100286.84;;;22.57;31.54
71126;BME280;58785;55.566;38.058;2023-04-24T09:58:28;100284.88;;;22.64;31.51
71126;BME280;58785;55.566;38.058;2023-04-24T10:00:55;100290.50;;;22.70;31.32
71126;BME280;58785;55.566;38.058;2023-04-24T10:03:26;100282.72;;;22.73;31.25
71126;BME280;58785;55.566;38.058;2023-04-24T10:05:58;100278.34;;;22.72;31.53
71126;BME280;58785;55.566;38.058;2023-04-24T10:08:24;100276.41;;;22.79;31.21
71126;BME280;58785;55.566;38.058;2023-04-24T10:10:50;100278.34;;;22.72;31.33
71126;BME280;58785;55.566;38.058;2023-04-24T10:13:16;100276.72;;;22.64;31.36
71126;BME280;58785;55.566;38.058;2023-04-24T10:15:42;100280.31;;;22.65;31.41
71126;BME280;58785;55.566;38.058;2023-04-24T10:18:09;100265.72;;;22.59;31.63
71126;BME280;58785;55.566;38.058;2023-04-24T10:20:36;100273.34;;;22.69;31.41
71126;BME280;58785;55.566;38.058;2023-04-24T10:23:02;100267.31;;;22.67;31.19
71126;BME280;58785;55.566;38.058;2023-04-24T10:25:35;100271.16;;;22.59;30.78
71126;BME280;58785;55.566;38.058;2023-04-24T10:28:02;100263.03;;;22.53;31.06
71126;BME280;58785;55.566;38.058;2023-04-24T10:30:30;100261.81;;;22.49;31.13
71126;BME280;58785;55.566;38.058;2023-04-24T10:32:56;100262.47;;;22.44;31.43
71126;BME280;58785;55.566;38.058;2023-04-24T10:35:22;100256.16;;;22.50;30.84
71126;BME280;58785;55.566;38.058;2023-04-24T10:40:41;100254.22;;;22.57;30.89
71126;BME280;58785;55.566;38.058;2023-04-24T10:43:08;100249.63;;;22.58;30.88
71126;BME280;58785;55.566;38.058;2023-04-24T10:45:38;100258.00;;;22.56;30.47
71126;BME280;58785;55.566;38.058;2023-04-24T10:48:06;100244.22;;;22.51;30.62
71126;BME280;58785;55.566;38.058;2023-04-24T10:50:46;100245.28;;;22.50;30.64
71126;BME280;58785;55.566;38.058;2023-04-24T10:53:18;100247.00;;;22.45;31.24
71126;BME280;58785;55.566;38.058;2023-04-24T10:55:49;100242.72;;;22.30;31.27
71126;BME280;58785;55.566;38.058;2023-04-24T10:58:17;100249.03;;;22.24;31.26
71126;BME280;58785;55.566;38.058;2023-04-24T11:00:56;100245.06;;;22.27;31.40
71126;BME280;58785;55.566;38.058;2023-04-24T11:03:32;100237.06;;;22.32;30.69
71126;BME280;58785;55.566;38.058;2023-04-24T11:06:07;100229.97;;;22.31;30.95
71126;BME280;58785;55.566;38.058;2023-04-24T11:08:44;100228.78;;;22.27;31.03
71126;BME280;58785;55.566;38.058;2023-04-24T11:11:17;100230.44;;;22.28;31.00
71126;BME280;58785;55.566;38.058;2023-04-24T11:16:30;100213.13;;;22.22;30.55
71126;BME280;58785;55.566;38.058;2023-04-24T11:19:05;100217.06;;;22.26;30.93
71126;BME280;58785;55.566;38.058;2023-04-24T11:21:47;100222.44;;;22.33;30.88
71126;BME280;58785;55.566;38.058;2023-04-24T11:29:38;100214.28;;;22.33;30.51
71126;BME280;58785;55.566;38.058;2023-04-24T11:34:49;100207.66;;;21.97;30.63
71126;BME280;58785;55.566;38.058;2023-04-24T11:37:16;100200.72;;;21.70;30.93
71126;BME280;58785;55.566;38.058;2023-04-24T11:39:42;100190.63;;;21.45;30.98
71126;BME280;58785;55.566;38.058;2023-04-24T11:42:09;100195.63;;;21.42;30.87
71126;BME280;58785;55.566;38.058;2023-04-24T11:44:35;100197.28;;;21.49;30.94
71126;BME280;58785;55.566;38.058;2023-04-24T11:47:05;100185.94;;;21.59;31.20
71126;BME280;58785;55.566;38.058;2023-04-24T11:49:31;100187.75;;;21.72;30.63
71126;BME280;58785;55.566;38.058;2023-04-24T11:51:57;100183.34;;;21.77;30.81
71126;BME280;58785;55.566;38.058;2023-04-24T11:54:22;100171.66;;;21.77;30.83
71126;BME280;58785;55.566;38.058;2023-04-24T11:56:49;100183.00;;;21.67;31.01
71126;BME280;58785;55.566;38.058;2023-04-24T11:59:14;100177.44;;;21.49;31.37
71126;BME280;58785;55.566;38.058;2023-04-24T12:01:46;100164.56;;;21.38;30.95
71126;BME280;58785;55.566;38.058;2023-04-24T12:04:13;100171.44;;;21.40;30.91
71126;BME280;58785;55.566;38.058;2023-04-24T12:06:39;100169.91;;;21.51;30.84
71126;BME280;58785;55.566;38.058;2023-04-24T12:09:05;100164.84;;;21.61;30.93
71126;BME280;58785;55.566;38.058;2023-04-24T12:11:31;100164.56;;;21.76;31.00
71126;BME280;58785;55.566;38.058;2023-04-24T12:13:57;100157.00;;;21.85;30.97
71126;BME280;58785;55.566;38.058;2023-04-24T12:16:34;100153.97;;;21.93;30.59
71126;BME280;58785;55.566;38.058;2023-04-24T12:19:00;100164.41;;;21.96;30.16
71126;BME280;58785;55.566;38.058;2023-04-24T12:21:27;100161.06;;;21.94;30.61
71126;BME280;58785;55.566;38.058;2023-04-24T12:23:55;100150.09;;;21.82;30.56
71126;BME280;58785;55.566;38.058;2023-04-24T12:26:21;100150.53;;;21.79;30.99
71126;BME280;58785;55.566;38.058;2023-04-24T12:28:49;100149.94;;;21.77;30.82
71126;BME280;58785;55.566;38.058;2023-04-24T12:31:16;100146.78;;;21.80;30.74
71126;BME280;58785;55.566;38.058;2023-04-24T12:33:42;100153.59;;;21.89;30.79
71126;BME280;58785;55.566;38.058;2023-04-24T12:36:12;100147.56;;;21.87;30.24
71126;BME280;58785;55.566;38.058;2023-04-24T12:38:38;100143.94;;;21.93;29.94
71126;BME280;58785;55.566;38.058;2023-04-24T12:41:10;100151.81;;;22.01;30.20
71126;BME280;58785;55.566;38.058;2023-04-24T12:43:37;100141.38;;;22.05;30.25
71126;BME280;58785;55.566;38.058;2023-04-24T12:46:03;100142.19;;;22.05;30.58
71126;BME280;58785;55.566;38.058;2023-04-24T12:48:29;100139.06;;;22.08;30.73
71126;BME280;58785;55.566;38.058;2023-04-24T12:50:59;100131.97;;;22.07;30.68
71126;BME280;58785;55.566;38.058;2023-04-24T12:53:28;100135.03;;;22.18;30.65